Pays
Station

 

Conditions  météo  pour  Tyler, Tyler Pounds Field  -  Etats-Unis    Etats-Unis

  
9 °C
    
 
 

METAR pour Tyler, Tyler Pounds Field :

KTYR 221553Z 09006KT 3/4SM BR OVC002 09/08 A3000 RMK AO2 LTG DSNT SW AND W RAB1456E41 SLP156 P0002 T00890083

 

Voici le bulletin pour Tyler, Tyler Pounds Field - Etats-Unis.
 
Le bulletin a été fait il y a 24 minutes, à 15:53 UTC .
Le vent soufflait à la vitesse de 3.1 mètres par seconde de Est (090°).
 
La température était de 9 °C, avec un point de rosée à 8 °C.
La pression atmosphérique était de 1016 hPa.
L'humidité relative était de 93.4%.
 
Le ciel était nuageux à partir d'une hauteur de 61 mètres
 
La visibilité globale était de 1207 mètres.
 
Actuellement brume.

 
 
 

Pays :   A   B   C   D   E   F   G   H   I   J   K   L   M   N   O   P   Q   R   S   T   U   V   W   Y   Z

 

Partenaires :  Info Météo avec Met'info
Météo Marine avec MeteoMarine.net
Infos Site  |  Infos Légales  |  Crédits  |  Confidentialité
Contactez-nous  |  Ajouter aux favoris
© 2013-2019 METAR - Tous droits réservés